createdAt,value
2019-01-20T00:00:39.593Z,0
2019-01-20T00:01:41.086Z,0
2019-01-20T00:02:42.473Z,0
2019-01-20T00:03:43.979Z,0
2019-01-20T00:04:45.362Z,0
2019-01-20T00:05:46.754Z,0
2019-01-20T00:06:48.286Z,0
2019-01-20T00:07:49.676Z,0
2019-01-20T00:08:51.077Z,0
2019-01-20T00:09:52.610Z,0
2019-01-20T00:10:54.000Z,0
2019-01-20T00:11:55.484Z,0
2019-01-20T00:12:56.879Z,0
2019-01-20T00:13:58.453Z,0
2019-01-20T00:14:59.846Z,0
2019-01-20T00:16:01.452Z,0
2019-01-20T00:17:02.850Z,0
2019-01-20T00:18:04.338Z,0
2019-01-20T00:19:05.732Z,0
2019-01-20T00:20:07.253Z,0
2019-01-20T00:21:08.916Z,0
2019-01-20T00:22:10.317Z,0
2019-01-20T00:23:11.946Z,0
2019-01-20T00:24:13.337Z,0
2019-01-20T00:25:14.728Z,0
2019-01-20T00:26:16.373Z,0
2019-01-20T00:27:17.771Z,0
2019-01-20T00:28:19.180Z,0
2019-01-20T00:29:20.796Z,0
2019-01-20T00:30:22.192Z,0
2019-01-20T00:31:23.587Z,0
2019-01-20T00:32:25.116Z,0
2019-01-20T00:33:26.508Z,0
2019-01-20T00:34:27.994Z,0
2019-01-20T00:35:29.393Z,0
2019-01-20T00:36:30.880Z,0
2019-01-20T00:37:32.330Z,0
2019-01-20T00:38:33.755Z,0
2019-01-20T00:39:35.152Z,0
2019-01-20T00:40:36.545Z,0
2019-01-20T00:41:38.084Z,0
2019-01-20T00:42:39.484Z,0
2019-01-20T00:43:40.887Z,0
2019-01-20T00:44:42.398Z,0
2019-01-20T00:45:43.789Z,0
2019-01-20T00:46:45.186Z,0
2019-01-20T00:47:46.744Z,0
2019-01-20T00:48:48.147Z,0
2019-01-20T00:49:49.532Z,0
2019-01-20T00:50:51.037Z,0
2019-01-20T00:51:52.437Z,0
2019-01-20T00:52:54.256Z,0
2019-01-20T00:53:55.770Z,0
2019-01-20T00:54:57.165Z,0
2019-01-20T00:55:58.559Z,0
2019-01-20T00:57:00.091Z,0
2019-01-20T00:58:01.487Z,0
2019-01-20T00:59:02.884Z,0
2019-01-20T01:00:04.789Z,0
2019-01-20T01:01:06.964Z,0
2019-01-20T01:02:08.725Z,0
2019-01-20T01:03:10.166Z,0
2019-01-20T01:04:11.562Z,0
2019-01-20T01:05:12.955Z,0
2019-01-20T01:06:14.487Z,0
2019-01-20T01:07:15.880Z,0
2019-01-20T01:08:17.413Z,0
2019-01-20T01:09:19.212Z,0
2019-01-20T01:10:21.434Z,0
2019-01-20T01:11:23.194Z,0
2019-01-20T01:12:24.586Z,0
2019-01-20T01:13:26.056Z,0
2019-01-20T01:14:27.418Z,0
2019-01-20T01:15:28.809Z,0
2019-01-20T01:16:30.326Z,0
2019-01-20T01:17:31.722Z,0
2019-01-20T01:18:33.112Z,0
2019-01-20T01:19:34.649Z,0
2019-01-20T01:20:36.042Z,0
2019-01-20T01:21:37.435Z,0
2019-01-20T01:22:38.968Z,0
2019-01-20T01:23:56.822Z,0
2019-01-20T01:24:58.438Z,0
2019-01-20T01:25:59.834Z,0
2019-01-20T01:27:01.230Z,0
2019-01-20T01:28:02.762Z,0
2019-01-20T01:29:04.153Z,0
2019-01-20T01:30:05.547Z,0
2019-01-20T01:31:07.080Z,0
2019-01-20T01:32:08.484Z,0
2019-01-20T01:33:09.966Z,0
2019-01-20T01:34:11.368Z,0
2019-01-20T01:35:12.843Z,0
2019-01-20T01:36:14.241Z,0
2019-01-20T01:37:15.627Z,0
2019-01-20T01:38:17.191Z,0
2019-01-20T01:39:18.587Z,0
2019-01-20T01:40:19.980Z,0
2019-01-20T01:41:21.594Z,0
2019-01-20T01:42:22.989Z,0
2019-01-20T01:43:24.383Z,0
2019-01-20T01:44:25.813Z,0
2019-01-20T01:45:27.207Z,0
2019-01-20T01:46:28.613Z,0
2019-01-20T01:47:30.522Z,0
2019-01-20T01:48:31.937Z,0
2019-01-20T01:49:33.423Z,0
2019-01-20T01:50:34.817Z,0
2019-01-20T01:51:37.328Z,0
2019-01-20T01:52:39.482Z,0
2019-01-20T01:53:41.024Z,0
2019-01-20T01:54:42.433Z,0
2019-01-20T01:55:43.912Z,0
2019-01-20T01:56:45.313Z,0
2019-01-20T01:57:47.116Z,0
2019-01-20T01:58:49.131Z,0
2019-01-20T01:59:50.525Z,0
2019-01-20T02:00:51.924Z,0
2019-01-20T02:01:53.380Z,0
2019-01-20T02:02:55.176Z,0
2019-01-20T02:03:56.659Z,0
2019-01-20T02:04:58.055Z,0
2019-01-20T02:05:59.539Z,0
2019-01-20T02:07:00.936Z,0
2019-01-20T02:08:02.420Z,0
2019-01-20T02:09:04.202Z,0
2019-01-20T02:10:05.715Z,0
2019-01-20T02:11:07.109Z,0
2019-01-20T02:12:08.597Z,0
2019-01-20T02:13:09.990Z,0
2019-01-20T02:14:11.472Z,0
2019-01-20T02:15:13.268Z,0
2019-01-20T02:16:15.163Z,0
2019-01-20T02:17:16.556Z,0
2019-01-20T02:18:18.452Z,0
2019-01-20T02:19:19.842Z,0
2019-01-20T02:20:21.344Z,0
2019-01-20T02:21:22.735Z,0
2019-01-20T02:22:24.127Z,0
2019-01-20T02:23:25.664Z,0
2019-01-20T02:24:27.060Z,0
2019-01-20T02:25:28.458Z,0
2019-01-20T02:26:30.092Z,0
2019-01-20T02:27:31.483Z,0
2019-01-20T02:28:32.880Z,0
2019-01-20T02:29:35.820Z,0
2019-01-20T02:30:37.212Z,0
2019-01-20T02:31:38.614Z,0
2019-01-20T02:32:40.166Z,0
2019-01-20T02:33:41.564Z,0
2019-01-20T02:34:42.959Z,0
2019-01-20T02:35:44.345Z,0
2019-01-20T02:36:45.737Z,0
2019-01-20T02:37:47.129Z,0
2019-01-20T02:38:48.809Z,0
2019-01-20T02:39:50.198Z,0
2019-01-20T02:40:51.891Z,0
2019-01-20T02:41:55.305Z,0
2019-01-20T02:42:54.702Z,0
2019-01-20T02:43:56.224Z,0
2019-01-20T02:44:58.072Z,0
2019-01-20T02:45:59.479Z,0
2019-01-20T02:47:01.153Z,0
2019-01-20T02:48:02.546Z,0
2019-01-20T02:49:04.241Z,0
2019-01-20T02:50:05.645Z,0
2019-01-20T02:51:07.336Z,0
2019-01-20T02:52:09.114Z,0
2019-01-20T02:53:10.823Z,0
2019-01-20T02:54:12.617Z,0
2019-01-20T02:55:14.314Z,0
2019-01-20T02:56:15.709Z,0
2019-01-20T02:57:17.106Z,0
2019-01-20T02:58:18.512Z,0
2019-01-20T02:59:20.684Z,0
2019-01-20T03:00:22.078Z,0
2019-01-20T03:01:23.472Z,0
2019-01-20T03:02:25.399Z,0
2019-01-20T03:03:26.791Z,0
2019-01-20T03:04:28.185Z,0
2019-01-20T03:05:29.747Z,0
2019-01-20T03:06:31.140Z,0
2019-01-20T03:07:32.532Z,0
2019-01-20T03:08:34.066Z,0
2019-01-20T03:09:35.458Z,0
2019-01-20T03:10:37.537Z,0
2019-01-20T03:11:39.314Z,0
2019-01-20T03:12:40.850Z,0
2019-01-20T03:13:42.244Z,0
2019-01-20T03:14:43.937Z,0
2019-01-20T03:15:45.334Z,0
2019-01-20T03:16:47.025Z,0
2019-01-20T03:17:48.814Z,0
2019-01-20T03:18:50.211Z,0
2019-01-20T03:19:51.752Z,0
2019-01-20T03:20:53.142Z,0
2019-01-20T03:21:54.550Z,0
2019-01-20T03:22:56.072Z,0
2019-01-20T03:23:57.467Z,0
2019-01-20T03:24:59.156Z,0
2019-01-20T03:26:00.973Z,0
2019-01-20T03:27:02.653Z,0
2019-01-20T03:28:04.436Z,0
2019-01-20T03:29:06.334Z,0
2019-01-20T03:30:07.730Z,0
2019-01-20T03:31:09.267Z,0
2019-01-20T03:32:11.034Z,0
2019-01-20T03:33:13.141Z,0
2019-01-20T03:34:14.531Z,0
2019-01-20T03:35:16.236Z,0
2019-01-20T03:36:17.621Z,0
2019-01-20T03:37:19.313Z,0
2019-01-20T03:38:20.709Z,0
2019-01-20T03:39:22.109Z,0
2019-01-20T03:40:23.634Z,0
2019-01-20T03:41:25.030Z,0
2019-01-20T03:42:26.428Z,0
2019-01-20T03:43:28.341Z,0
2019-01-20T03:44:29.735Z,0
2019-01-20T03:45:31.560Z,0
2019-01-20T03:46:32.958Z,0
2019-01-20T03:47:34.358Z,0
2019-01-20T03:48:35.998Z,0
2019-01-20T03:49:37.382Z,0
2019-01-20T03:50:38.773Z,0
2019-01-20T03:51:40.304Z,0
2019-01-20T03:52:42.503Z,0
2019-01-20T03:53:43.898Z,0
2019-01-20T03:54:45.444Z,0
2019-01-20T03:55:47.611Z,0
2019-01-20T03:56:49.140Z,0
2019-01-20T03:57:50.537Z,0
2019-01-20T03:58:51.929Z,0
2019-01-20T03:59:53.480Z,0
2019-01-20T04:00:54.880Z,0
2019-01-20T04:01:56.235Z,0
2019-01-20T04:02:57.782Z,0
2019-01-20T04:03:59.183Z,0
2019-01-20T04:05:00.872Z,0
2019-01-20T04:06:02.266Z,0
2019-01-20T04:07:03.959Z,0
2019-01-20T04:08:05.349Z,0
2019-01-20T04:09:07.040Z,0
2019-01-20T04:10:08.434Z,0
2019-01-20T04:11:10.550Z,0
2019-01-20T04:12:20.318Z,0
2019-01-20T04:13:13.839Z,0
2019-01-20T04:14:15.235Z,0
2019-01-20T04:15:17.334Z,0
2019-01-20T04:16:19.085Z,0
2019-01-20T04:17:20.604Z,0
2019-01-20T04:18:22.003Z,0
2019-01-20T04:19:23.700Z,0
2019-01-20T04:20:25.093Z,0
2019-01-20T04:21:28.400Z,0
2019-01-20T04:22:29.791Z,0
2019-01-20T04:23:31.319Z,0
2019-01-20T04:24:33.076Z,0
2019-01-20T04:25:34.594Z,0
2019-01-20T04:26:36.382Z,0
2019-01-20T04:27:38.086Z,0
2019-01-20T04:28:39.490Z,0
2019-01-20T04:29:41.176Z,0
2019-01-20T04:30:42.582Z,0
2019-01-20T04:31:44.651Z,0
2019-01-20T04:32:46.044Z,0
2019-01-20T04:33:47.442Z,0
2019-01-20T04:34:49.000Z,0
2019-01-20T04:35:50.392Z,0
2019-01-20T04:36:52.169Z,0
2019-01-20T04:37:53.723Z,0
2019-01-20T04:38:55.125Z,0
2019-01-20T04:39:56.517Z,0
2019-01-20T04:40:58.057Z,0
2019-01-20T04:41:59.440Z,0
2019-01-20T04:43:00.833Z,0
2019-01-20T04:44:02.370Z,0
2019-01-20T04:45:04.548Z,0
2019-01-20T04:46:06.067Z,0
2019-01-20T04:47:07.456Z,0
2019-01-20T04:48:09.152Z,0
2019-01-20T04:49:10.546Z,0
2019-01-20T04:50:12.249Z,0
2019-01-20T04:51:13.630Z,0
2019-01-20T04:52:15.322Z,0
2019-01-20T04:53:16.717Z,0
2019-01-20T04:54:18.409Z,0
2019-01-20T04:55:19.807Z,0
2019-01-20T04:56:21.503Z,0
2019-01-20T04:57:22.898Z,0
2019-01-20T04:58:24.581Z,0
2019-01-20T04:59:25.971Z,0
2019-01-20T05:00:27.671Z,0
2019-01-20T05:01:29.062Z,0
2019-01-20T05:02:30.751Z,0
2019-01-20T05:03:32.146Z,0
2019-01-20T05:04:33.537Z,0
2019-01-20T05:05:35.070Z,0
2019-01-20T05:06:36.463Z,0
2019-01-20T05:07:37.858Z,0
2019-01-20T05:08:39.395Z,0
2019-01-20T05:09:40.786Z,0
2019-01-20T05:10:42.182Z,0
2019-01-20T05:11:43.716Z,0
2019-01-20T05:12:45.109Z,0
2019-01-20T05:13:46.502Z,0
2019-01-20T05:14:48.038Z,0
2019-01-20T05:15:49.430Z,0
2019-01-20T05:16:50.822Z,0
2019-01-20T05:17:52.357Z,0
2019-01-20T05:18:53.747Z,0
2019-01-20T05:19:55.139Z,0
2019-01-20T05:20:56.733Z,0
2019-01-20T05:21:58.078Z,0
2019-01-20T05:22:59.772Z,0
2019-01-20T05:24:01.160Z,0
2019-01-20T05:25:02.556Z,0
2019-01-20T05:26:04.295Z,0
2019-01-20T05:27:05.680Z,0
2019-01-20T05:28:07.074Z,0
2019-01-20T05:29:08.609Z,0
2019-01-20T05:30:10.004Z,0
2019-01-20T05:31:12.073Z,0
2019-01-20T05:32:13.475Z,0
2019-01-20T05:33:14.985Z,0
2019-01-20T05:34:16.386Z,0
2019-01-20T05:35:17.782Z,0
2019-01-20T05:36:19.304Z,0
2019-01-20T05:37:20.698Z,0
2019-01-20T05:38:22.093Z,0
2019-01-20T05:39:23.636Z,0
2019-01-20T05:40:25.030Z,0
2019-01-20T05:41:26.419Z,0
2019-01-20T05:42:27.950Z,0
2019-01-20T05:43:29.354Z,0
2019-01-20T05:44:30.741Z,0
2019-01-20T05:45:32.283Z,0
2019-01-20T05:46:33.681Z,0
2019-01-20T05:47:35.072Z,0
2019-01-20T05:48:36.601Z,0
2019-01-20T05:49:38.002Z,0
2019-01-20T05:50:39.394Z,0
2019-01-20T05:51:40.914Z,0
2019-01-20T05:52:42.335Z,0
2019-01-20T05:53:43.733Z,0
2019-01-20T05:54:45.237Z,0
2019-01-20T05:55:46.631Z,0
2019-01-20T05:56:48.320Z,0
2019-01-20T05:57:49.712Z,0
2019-01-20T05:58:51.407Z,0
2019-01-20T05:59:53.196Z,0
2019-01-20T06:00:54.595Z,0
2019-01-20T06:01:56.137Z,0
2019-01-20T06:02:57.523Z,0
2019-01-20T06:03:58.918Z,0
2019-01-20T06:05:00.459Z,0
2019-01-20T06:06:01.853Z,0
2019-01-20T06:07:03.545Z,0
2019-01-20T06:08:04.936Z,0
2019-01-20T06:09:06.632Z,0
2019-01-20T06:10:07.987Z,0
2019-01-20T06:11:09.511Z,0
2019-01-20T06:12:10.899Z,0
2019-01-20T06:13:12.607Z,0
2019-01-20T06:14:13.988Z,0
2019-01-20T06:15:15.385Z,0
2019-01-20T06:16:16.923Z,0
2019-01-20T06:17:18.326Z,0
2019-01-20T06:18:19.719Z,0
2019-01-20T06:19:21.244Z,0
2019-01-20T06:20:22.630Z,0
2019-01-20T06:21:24.325Z,0
2019-01-20T06:22:25.716Z,0
2019-01-20T06:23:27.409Z,0
2019-01-20T06:24:28.800Z,0
2019-01-20T06:25:30.495Z,0
2019-01-20T06:26:31.895Z,0
2019-01-20T06:27:33.589Z,0
2019-01-20T06:28:34.986Z,0
2019-01-20T06:29:36.668Z,0
2019-01-20T06:30:38.055Z,0
2019-01-20T06:31:39.742Z,0
2019-01-20T06:32:41.147Z,0
2019-01-20T06:33:42.851Z,0
2019-01-20T06:34:44.237Z,0
2019-01-20T06:35:45.924Z,0
2019-01-20T06:36:47.319Z,0
2019-01-20T06:37:49.012Z,0
2019-01-20T06:38:50.405Z,0
2019-01-20T06:39:52.098Z,0
2019-01-20T06:40:53.485Z,0
2019-01-20T06:41:55.183Z,0
2019-01-20T06:43:01.847Z,0
2019-01-20T06:43:58.063Z,0
2019-01-20T06:44:59.452Z,0
2019-01-20T06:46:00.844Z,0
2019-01-20T06:47:02.391Z,0
2019-01-20T06:48:03.774Z,0
2019-01-20T06:49:05.170Z,0
2019-01-20T06:50:06.707Z,0
2019-01-20T06:51:08.105Z,0
2019-01-20T06:52:09.494Z,0
2019-01-20T06:53:11.030Z,0
2019-01-20T06:54:12.415Z,0
2019-01-20T06:55:13.808Z,0
2019-01-20T06:56:15.350Z,4
2019-01-20T06:57:16.740Z,0
2019-01-20T06:58:18.448Z,0
2019-01-20T06:59:19.823Z,0
2019-01-20T07:00:21.533Z,4
2019-01-20T07:01:22.923Z,0
2019-01-20T07:02:24.333Z,4
2019-01-20T07:03:25.870Z,0
2019-01-20T07:04:27.246Z,4
2019-01-20T07:05:28.655Z,4
2019-01-20T07:06:30.159Z,8
2019-01-20T07:07:31.558Z,8
2019-01-20T07:08:33.455Z,4
2019-01-20T07:09:34.844Z,4
2019-01-20T07:10:36.541Z,12
2019-01-20T07:11:37.934Z,12
2019-01-20T07:12:39.710Z,12
2019-01-20T07:13:41.106Z,12
2019-01-20T07:14:43.736Z,16
2019-01-20T07:15:45.127Z,16
2019-01-20T07:16:46.523Z,16
2019-01-20T07:17:48.059Z,20
2019-01-20T07:18:49.596Z,24
2019-01-20T07:19:50.807Z,24
2019-01-20T07:20:52.389Z,24
2019-01-20T07:21:53.768Z,28
2019-01-20T07:22:55.166Z,32
2019-01-20T07:23:56.703Z,36
2019-01-20T07:24:58.101Z,40
2019-01-20T07:25:59.498Z,44
2019-01-20T07:27:01.048Z,44
2019-01-20T07:28:02.444Z,52
2019-01-20T07:29:04.108Z,52
2019-01-20T07:30:05.505Z,60
2019-01-20T07:31:07.197Z,60
2019-01-20T07:32:08.587Z,64
2019-01-20T07:33:10.274Z,68
2019-01-20T07:34:11.680Z,72
2019-01-20T07:35:13.381Z,80
2019-01-20T07:36:14.765Z,84
2019-01-20T07:37:16.447Z,88
2019-01-20T07:38:18.186Z,92
2019-01-20T07:39:19.742Z,96
2019-01-20T07:40:21.134Z,104
2019-01-20T07:41:22.827Z,108
2019-01-20T07:42:24.218Z,112
2019-01-20T07:43:25.915Z,116
2019-01-20T07:44:27.309Z,124
2019-01-20T07:45:29.432Z,128
2019-01-20T07:46:30.855Z,132
2019-01-20T07:47:32.256Z,140
2019-01-20T07:48:33.928Z,144
2019-01-20T07:49:35.334Z,152
2019-01-20T07:50:36.725Z,152
2019-01-20T07:51:38.259Z,160
2019-01-20T07:52:39.657Z,164
2019-01-20T07:53:41.348Z,172
2019-01-20T07:54:42.843Z,172
2019-01-20T07:55:44.429Z,180
2019-01-20T07:56:46.217Z,184
2019-01-20T07:57:47.610Z,188
2019-01-20T07:58:49.167Z,196
2019-01-20T07:59:50.552Z,196
2019-01-20T08:00:51.950Z,204
2019-01-20T08:01:53.497Z,208
2019-01-20T08:02:54.877Z,216
2019-01-20T08:03:56.567Z,216
2019-01-20T08:04:57.958Z,224
2019-01-20T08:05:59.658Z,228
2019-01-20T08:07:01.048Z,232
2019-01-20T08:08:02.741Z,236
2019-01-20T08:09:04.137Z,240
2019-01-20T08:10:05.824Z,248
2019-01-20T08:11:07.219Z,248
2019-01-20T08:12:08.920Z,256
2019-01-20T08:13:10.316Z,256
2019-01-20T08:14:11.997Z,264
2019-01-20T08:15:13.403Z,268
2019-01-20T08:16:14.784Z,276
2019-01-20T08:17:16.317Z,280
2019-01-20T08:18:17.709Z,280
2019-01-20T08:19:19.115Z,288
2019-01-20T08:20:20.642Z,296
2019-01-20T08:21:22.476Z,308
2019-01-20T08:22:23.879Z,308
2019-01-20T08:23:25.979Z,324
2019-01-20T08:24:27.375Z,328
2019-01-20T08:25:28.767Z,336
2019-01-20T08:26:30.299Z,332
2019-01-20T08:27:31.757Z,332
2019-01-20T08:28:33.093Z,344
2019-01-20T08:29:34.621Z,340
2019-01-20T08:30:36.023Z,336
2019-01-20T08:31:37.418Z,340
2019-01-20T08:32:38.957Z,340
2019-01-20T08:33:40.340Z,340
2019-01-20T08:34:42.029Z,348
2019-01-20T08:35:43.426Z,352
2019-01-20T08:36:44.823Z,356
2019-01-20T08:37:46.351Z,364
2019-01-20T08:38:47.757Z,364
2019-01-20T08:39:49.147Z,368
2019-01-20T08:40:50.674Z,368
2019-01-20T08:41:52.062Z,364
2019-01-20T08:42:53.591Z,368
2019-01-20T08:43:55.206Z,372
2019-01-20T08:44:56.600Z,376
2019-01-20T08:45:58.002Z,376
2019-01-20T08:46:59.525Z,380
2019-01-20T08:48:00.920Z,384
2019-01-20T08:49:02.312Z,384
2019-01-20T08:50:03.847Z,388
2019-01-20T08:51:05.237Z,396
2019-01-20T08:52:06.638Z,396
2019-01-20T08:53:08.170Z,400
2019-01-20T08:54:09.566Z,412
2019-01-20T08:55:11.250Z,412
2019-01-20T08:56:12.646Z,416
2019-01-20T08:57:14.334Z,420
2019-01-20T08:58:15.745Z,432
2019-01-20T08:59:17.432Z,432
2019-01-20T09:00:18.827Z,428
2019-01-20T09:01:20.506Z,424
2019-01-20T09:02:22.195Z,428
2019-01-20T09:03:23.798Z,424
2019-01-20T09:04:25.191Z,428
2019-01-20T09:05:26.901Z,432
2019-01-20T09:06:28.296Z,436
2019-01-20T09:07:29.967Z,436
2019-01-20T09:08:31.363Z,444
2019-01-20T09:09:33.054Z,448
2019-01-20T09:10:34.452Z,440
2019-01-20T09:11:36.136Z,444
2019-01-20T09:12:37.533Z,448
2019-01-20T09:13:39.897Z,444
2019-01-20T09:14:40.591Z,448
2019-01-20T09:15:42.105Z,452
2019-01-20T09:16:43.500Z,452
2019-01-20T09:17:44.926Z,456
2019-01-20T09:18:46.467Z,460
2019-01-20T09:19:47.864Z,456
2019-01-20T09:20:49.260Z,460
2019-01-20T09:21:50.953Z,464
2019-01-20T09:22:52.353Z,472
2019-01-20T09:23:53.752Z,468
2019-01-20T09:24:55.528Z,472
2019-01-20T09:25:56.923Z,472
2019-01-20T09:26:58.319Z,468
2019-01-20T09:27:59.716Z,472
2019-01-20T09:29:01.116Z,472
2019-01-20T09:30:02.691Z,476
2019-01-20T09:31:04.081Z,476
2019-01-20T09:32:05.789Z,480
2019-01-20T09:33:07.193Z,488
2019-01-20T09:34:08.856Z,496
2019-01-20T09:35:10.254Z,504
2019-01-20T09:36:11.937Z,504
2019-01-20T09:37:13.352Z,504
2019-01-20T09:38:15.143Z,508
2019-01-20T09:39:16.533Z,504
2019-01-20T09:40:17.937Z,508
2019-01-20T09:41:19.561Z,508
2019-01-20T09:42:20.958Z,520
2019-01-20T09:43:22.359Z,520
2019-01-20T09:44:23.748Z,528
2019-01-20T09:45:26.481Z,532
2019-01-20T09:46:28.259Z,536
2019-01-20T09:47:29.825Z,540
2019-01-20T09:48:31.230Z,548
2019-01-20T09:49:32.630Z,556
2019-01-20T09:50:34.153Z,564
2019-01-20T09:51:35.546Z,572
2019-01-20T09:52:36.943Z,584
2019-01-20T09:53:38.472Z,592
2019-01-20T09:54:39.876Z,588
2019-01-20T09:55:41.562Z,596
2019-01-20T09:56:42.960Z,608
2019-01-20T09:57:44.643Z,620
2019-01-20T09:58:46.132Z,644
2019-01-20T09:59:47.530Z,652
2019-01-20T10:00:49.183Z,668
2019-01-20T10:01:50.583Z,668
2019-01-20T10:02:51.979Z,680
2019-01-20T10:03:53.498Z,752
2019-01-20T10:04:54.892Z,784
2019-01-20T10:05:56.580Z,728
2019-01-20T10:06:57.980Z,688
2019-01-20T10:07:59.375Z,668
2019-01-20T10:09:00.914Z,664
2019-01-20T10:10:02.301Z,664
2019-01-20T10:11:03.702Z,688
2019-01-20T10:12:05.233Z,732
2019-01-20T10:13:06.642Z,736
2019-01-20T10:14:08.038Z,748
2019-01-20T10:15:09.545Z,776
2019-01-20T10:16:10.984Z,804
2019-01-20T10:17:12.379Z,820
2019-01-20T10:18:13.869Z,820
2019-01-20T10:19:15.292Z,832
2019-01-20T10:20:16.699Z,876
2019-01-20T10:21:18.189Z,1080
2019-01-20T10:22:19.582Z,1492
2019-01-20T10:23:20.989Z,1720
2019-01-20T10:24:22.506Z,1516
2019-01-20T10:25:24.224Z,1368
2019-01-20T10:26:25.800Z,1380
2019-01-20T10:27:27.197Z,1256
2019-01-20T10:28:28.597Z,1084
2019-01-20T10:29:30.123Z,1032
2019-01-20T10:30:31.519Z,988
2019-01-20T10:31:32.913Z,916
2019-01-20T10:32:34.446Z,1020
2019-01-20T10:33:35.841Z,1448
2019-01-20T10:34:37.527Z,1384
2019-01-20T10:35:38.927Z,912
2019-01-20T10:36:40.611Z,848
2019-01-20T10:37:42.006Z,880
2019-01-20T10:38:43.403Z,832
2019-01-20T10:39:44.930Z,732
2019-01-20T10:40:46.324Z,672
2019-01-20T10:41:47.724Z,656
2019-01-20T10:42:49.295Z,652
2019-01-20T10:43:50.702Z,644
2019-01-20T10:44:52.477Z,640
2019-01-20T10:45:53.985Z,636
2019-01-20T10:46:55.399Z,636
2019-01-20T10:47:56.793Z,636
2019-01-20T10:48:58.310Z,636
2019-01-20T10:49:59.705Z,640
2019-01-20T10:51:01.190Z,640
2019-01-20T10:52:02.589Z,640
2019-01-20T10:53:04.272Z,640
2019-01-20T10:54:07.157Z,644
2019-01-20T10:55:07.041Z,644
2019-01-20T10:56:08.432Z,644
2019-01-20T10:57:09.830Z,644
2019-01-20T10:58:11.480Z,644
2019-01-20T10:59:13.268Z,644
2019-01-20T11:00:14.662Z,644
2019-01-20T11:01:16.232Z,640
2019-01-20T11:02:17.635Z,640
2019-01-20T11:03:19.041Z,644
2019-01-20T11:04:20.526Z,644
2019-01-20T11:05:24.992Z,644
2019-01-20T11:06:23.287Z,644
2019-01-20T11:07:24.849Z,648
2019-01-20T11:08:26.270Z,648
2019-01-20T11:09:27.666Z,648
2019-01-20T11:10:29.173Z,644
2019-01-20T11:11:30.955Z,644
2019-01-20T11:12:32.472Z,644
2019-01-20T11:13:33.859Z,640
2019-01-20T11:14:35.256Z,636
2019-01-20T11:15:36.798Z,636
2019-01-20T11:16:38.194Z,636
2019-01-20T11:17:39.598Z,632
2019-01-20T11:18:41.112Z,628
2019-01-20T11:19:42.499Z,628
2019-01-20T11:20:44.194Z,624
2019-01-20T11:21:46.353Z,624
2019-01-20T11:22:47.892Z,628
2019-01-20T11:23:49.286Z,628
2019-01-20T11:24:50.702Z,624
2019-01-20T11:25:52.210Z,624
2019-01-20T11:26:53.988Z,628
2019-01-20T11:27:55.392Z,620
2019-01-20T11:28:56.941Z,620
2019-01-20T11:29:58.341Z,612
2019-01-20T11:31:00.025Z,612
2019-01-20T11:32:01.457Z,612
2019-01-20T11:33:03.112Z,612
2019-01-20T11:34:04.507Z,612
2019-01-20T11:35:06.287Z,608
2019-01-20T11:36:07.847Z,608
2019-01-20T11:37:09.262Z,608
2019-01-20T11:38:10.660Z,600
2019-01-20T11:39:12.179Z,604
2019-01-20T11:40:13.574Z,600
2019-01-20T11:41:15.634Z,596
2019-01-20T11:42:17.036Z,596
2019-01-20T11:43:25.143Z,596
2019-01-20T11:44:26.574Z,592
2019-01-20T11:45:28.250Z,588
2019-01-20T11:46:29.626Z,588
2019-01-20T11:47:31.268Z,588
2019-01-20T11:48:32.664Z,580
2019-01-20T11:49:34.739Z,576
2019-01-20T11:50:36.532Z,576
2019-01-20T11:51:38.053Z,576
2019-01-20T11:52:39.454Z,576
2019-01-20T11:53:41.148Z,576
2019-01-20T11:54:42.555Z,572
2019-01-20T11:55:44.271Z,572
2019-01-20T11:56:45.660Z,568
2019-01-20T11:57:47.345Z,568
2019-01-20T11:58:48.728Z,568
2019-01-20T11:59:50.576Z,572
2019-01-20T12:00:51.964Z,564
2019-01-20T12:01:53.480Z,560
2019-01-20T12:02:54.880Z,556
2019-01-20T12:03:56.361Z,556
2019-01-20T12:04:57.758Z,556
2019-01-20T12:05:59.448Z,552
2019-01-20T12:07:01.231Z,556
2019-01-20T12:08:02.938Z,552
2019-01-20T12:09:04.339Z,552
2019-01-20T12:10:06.214Z,552
2019-01-20T12:11:07.610Z,548
2019-01-20T12:12:09.115Z,548
2019-01-20T12:13:10.514Z,548
2019-01-20T12:14:12.285Z,544
2019-01-20T12:15:13.714Z,544
2019-01-20T12:16:15.282Z,544
2019-01-20T12:17:17.089Z,544
2019-01-20T12:18:18.576Z,540
2019-01-20T12:19:20.742Z,544
2019-01-20T12:20:22.276Z,540
2019-01-20T12:21:23.675Z,548
2019-01-20T12:22:25.383Z,544
2019-01-20T12:23:26.778Z,544
2019-01-20T12:24:28.174Z,544
2019-01-20T12:25:30.070Z,544
2019-01-20T12:26:31.464Z,540
2019-01-20T12:27:32.868Z,540
2019-01-20T12:28:34.413Z,536
2019-01-20T12:29:35.815Z,536
2019-01-20T12:30:37.211Z,532
2019-01-20T12:31:38.784Z,528
2019-01-20T12:32:40.228Z,524
2019-01-20T12:33:41.628Z,524
2019-01-20T12:34:43.313Z,524
2019-01-20T12:35:44.758Z,524
2019-01-20T12:36:46.135Z,520
2019-01-20T12:37:47.791Z,520
2019-01-20T12:38:49.190Z,520
2019-01-20T12:39:50.586Z,516
2019-01-20T12:40:52.114Z,516
2019-01-20T12:41:53.512Z,512
2019-01-20T12:42:55.195Z,508
2019-01-20T12:43:56.591Z,508
2019-01-20T12:44:58.079Z,508
2019-01-20T12:45:59.473Z,508
2019-01-20T12:47:00.958Z,512
2019-01-20T12:48:02.361Z,508
2019-01-20T12:49:04.213Z,508
2019-01-20T12:50:05.630Z,508
2019-01-20T12:51:07.022Z,508
2019-01-20T12:52:08.582Z,504
2019-01-20T12:53:09.975Z,504
2019-01-20T12:54:11.378Z,504
2019-01-20T12:55:12.901Z,500
2019-01-20T12:56:14.298Z,504
2019-01-20T12:57:15.973Z,496
2019-01-20T12:58:17.381Z,496
2019-01-20T12:59:19.065Z,496
2019-01-20T13:00:20.457Z,496
2019-01-20T13:01:21.986Z,496
2019-01-20T13:02:23.356Z,500
2019-01-20T13:03:25.028Z,496
2019-01-20T13:04:26.417Z,496
2019-01-20T13:05:27.904Z,492
2019-01-20T13:06:29.302Z,492
2019-01-20T13:07:30.784Z,488
2019-01-20T13:08:32.179Z,488
2019-01-20T13:09:33.664Z,484
2019-01-20T13:10:35.445Z,480
2019-01-20T13:11:36.958Z,476
2019-01-20T13:12:38.353Z,472
2019-01-20T13:13:39.837Z,472
2019-01-20T13:14:41.229Z,472
2019-01-20T13:15:42.629Z,472
2019-01-20T13:16:44.159Z,472
2019-01-20T13:17:45.563Z,468
2019-01-20T13:18:46.958Z,468
2019-01-20T13:19:48.482Z,464
2019-01-20T13:20:49.878Z,460
2019-01-20T13:21:51.298Z,452
2019-01-20T13:22:52.801Z,452
2019-01-20T13:23:54.198Z,448
2019-01-20T13:24:55.593Z,444
2019-01-20T13:25:57.122Z,444
2019-01-20T13:26:58.524Z,440
2019-01-20T13:27:59.915Z,436
2019-01-20T13:29:01.443Z,436
2019-01-20T13:30:02.841Z,436
2019-01-20T13:31:04.238Z,432
2019-01-20T13:32:05.765Z,432
2019-01-20T13:33:07.160Z,432
2019-01-20T13:34:08.730Z,432
2019-01-20T13:35:10.121Z,428
2019-01-20T13:36:11.751Z,424
2019-01-20T13:37:13.154Z,420
2019-01-20T13:38:14.816Z,420
2019-01-20T13:39:16.294Z,420
2019-01-20T13:40:17.689Z,416
2019-01-20T13:41:19.342Z,412
2019-01-20T13:42:20.734Z,412
2019-01-20T13:43:22.128Z,408
2019-01-20T13:44:23.665Z,412
2019-01-20T13:45:25.058Z,408
2019-01-20T13:46:26.457Z,404
2019-01-20T13:47:28.458Z,404
2019-01-20T13:48:29.849Z,400
2019-01-20T13:49:31.284Z,404
2019-01-20T13:50:32.925Z,404
2019-01-20T13:51:34.323Z,400
2019-01-20T13:52:35.774Z,396
2019-01-20T13:53:38.376Z,396
2019-01-20T13:54:38.804Z,396
2019-01-20T13:55:40.215Z,392
2019-01-20T13:56:41.981Z,392
2019-01-20T13:57:43.366Z,388
2019-01-20T13:58:44.857Z,384
2019-01-20T13:59:46.247Z,380
2019-01-20T14:00:47.641Z,376
2019-01-20T14:01:49.176Z,372
2019-01-20T14:02:50.569Z,376
2019-01-20T14:03:51.963Z,376
2019-01-20T14:04:53.499Z,372
2019-01-20T14:05:54.892Z,372
2019-01-20T14:06:56.307Z,368
2019-01-20T14:07:57.819Z,368
2019-01-20T14:08:59.238Z,364
2019-01-20T14:10:00.629Z,364
2019-01-20T14:11:02.142Z,364
2019-01-20T14:12:03.530Z,360
2019-01-20T14:13:05.023Z,360
2019-01-20T14:14:06.413Z,356
2019-01-20T14:15:07.905Z,352
2019-01-20T14:16:09.311Z,348
2019-01-20T14:17:10.705Z,344
2019-01-20T14:18:12.224Z,344
2019-01-20T14:19:13.682Z,340
2019-01-20T14:20:15.081Z,336
2019-01-20T14:21:16.760Z,328
2019-01-20T14:22:18.145Z,328
2019-01-20T14:23:19.633Z,328
2019-01-20T14:24:21.070Z,324
2019-01-20T14:25:22.719Z,320
2019-01-20T14:26:24.109Z,316
2019-01-20T14:27:25.602Z,312
2019-01-20T14:28:27.029Z,308
2019-01-20T14:29:28.682Z,308
2019-01-20T14:30:30.090Z,300
2019-01-20T14:31:31.670Z,300
2019-01-20T14:32:33.061Z,296
2019-01-20T14:33:34.649Z,292
2019-01-20T14:34:36.046Z,292
2019-01-20T14:35:37.532Z,288
2019-01-20T14:36:38.931Z,284
2019-01-20T14:37:40.326Z,284